createdAt,value
2018-08-17T00:02:12.307Z,18.48
2018-08-17T00:04:44.399Z,18.41
2018-08-17T00:07:15.712Z,18.36
2018-08-17T00:09:45.485Z,18.31
2018-08-17T00:12:15.279Z,18.25
2018-08-17T00:14:45.058Z,18.23
2018-08-17T00:17:14.819Z,18.20
2018-08-17T00:19:44.463Z,18.15
2018-08-17T00:22:14.125Z,18.13
2018-08-17T00:24:43.780Z,18.13
2018-08-17T00:27:13.472Z,18.09
2018-08-17T00:29:43.171Z,18.05
2018-08-17T00:32:13.030Z,18.05
2018-08-17T00:34:42.801Z,18.05
2018-08-17T00:37:12.475Z,18.04
2018-08-17T00:39:42.184Z,18.02
2018-08-17T00:42:11.849Z,18.03
2018-08-17T00:44:41.547Z,17.98
2018-08-17T00:47:11.221Z,17.95
2018-08-17T00:49:40.903Z,17.92
2018-08-17T00:52:10.647Z,17.83
2018-08-17T00:54:40.336Z,17.74
2018-08-17T00:57:10.010Z,17.70
2018-08-17T00:59:39.761Z,17.68
2018-08-17T01:02:09.436Z,17.67
2018-08-17T01:04:39.225Z,17.68
2018-08-17T01:07:08.974Z,17.65
2018-08-17T01:09:38.645Z,17.68
2018-08-17T01:12:08.402Z,17.66
2018-08-17T01:14:38.074Z,17.55
2018-08-17T01:17:07.931Z,17.48
2018-08-17T01:19:39.140Z,17.44
2018-08-17T01:22:08.773Z,17.45
2018-08-17T01:24:38.429Z,17.48
2018-08-17T01:27:08.173Z,17.49
2018-08-17T01:29:37.840Z,17.46
2018-08-17T01:32:07.521Z,17.51
2018-08-17T01:34:37.169Z,17.50
2018-08-17T01:37:07.128Z,17.44
2018-08-17T01:39:36.790Z,17.43
2018-08-17T01:42:06.541Z,17.37
2018-08-17T01:44:36.229Z,17.29
2018-08-17T01:47:06.027Z,17.26
2018-08-17T01:49:35.697Z,17.30
2018-08-17T01:52:05.337Z,17.23
2018-08-17T01:54:35.038Z,17.17
2018-08-17T01:57:04.749Z,17.18
2018-08-17T01:59:34.421Z,17.19
2018-08-17T02:02:04.225Z,17.16
2018-08-17T02:04:33.935Z,17.26
2018-08-17T02:07:03.920Z,17.93
2018-08-17T02:09:34.344Z,17.99
2018-08-17T02:12:04.061Z,18.07
2018-08-17T02:14:33.830Z,18.31
2018-08-17T02:17:03.577Z,18.32
2018-08-17T02:19:33.327Z,18.44
2018-08-17T02:22:04.589Z,18.41
2018-08-17T02:24:34.961Z,18.67
2018-08-17T02:27:04.772Z,18.83
2018-08-17T02:29:36.905Z,19.00
2018-08-17T02:32:11.185Z,18.98
2018-08-17T02:34:40.849Z,19.15
2018-08-17T02:37:10.609Z,19.11
2018-08-17T02:39:40.334Z,19.12
2018-08-17T02:42:10.046Z,19.10
2018-08-17T02:44:39.820Z,18.99
2018-08-17T02:47:09.817Z,18.83
2018-08-17T02:49:39.460Z,18.76
2018-08-17T02:52:09.151Z,18.90
2018-08-17T02:54:38.875Z,18.78
2018-08-17T02:57:08.690Z,18.83
2018-08-17T02:59:38.477Z,18.86
2018-08-17T03:02:08.124Z,18.65
2018-08-17T03:04:37.826Z,18.60
2018-08-17T03:07:07.587Z,18.85
2018-08-17T03:09:37.305Z,18.80
2018-08-17T03:12:07.193Z,18.87
2018-08-17T03:14:36.834Z,18.99
2018-08-17T03:17:06.656Z,18.99
2018-08-17T03:19:36.373Z,18.97
2018-08-17T03:22:06.439Z,19.02
2018-08-17T03:24:36.137Z,19.00
2018-08-17T03:27:05.941Z,18.96
2018-08-17T03:29:35.641Z,18.90
2018-08-17T03:32:05.329Z,18.94
2018-08-17T03:34:34.993Z,18.94
2018-08-17T03:37:04.666Z,18.98
2018-08-17T03:39:34.287Z,18.94
2018-08-17T03:42:04.236Z,19.00
2018-08-17T03:44:33.912Z,18.85
2018-08-17T03:47:03.622Z,18.78
2018-08-17T03:49:33.258Z,18.90
2018-08-17T03:52:03.351Z,18.59
2018-08-17T03:54:33.048Z,18.65
2018-08-17T03:57:02.803Z,18.70
2018-08-17T03:59:32.513Z,18.67
2018-08-17T04:02:02.236Z,18.79
2018-08-17T04:04:31.973Z,18.82
2018-08-17T04:07:01.677Z,18.79
2018-08-17T04:09:31.354Z,18.80
2018-08-17T04:12:01.137Z,18.82
2018-08-17T04:14:30.830Z,18.83
2018-08-17T04:17:00.558Z,18.80
2018-08-17T04:19:30.228Z,18.95
2018-08-17T04:21:59.997Z,18.98
2018-08-17T04:24:29.702Z,18.99
2018-08-17T04:26:59.467Z,19.06
2018-08-17T04:29:29.358Z,18.94
2018-08-17T04:31:59.006Z,18.99
2018-08-17T04:34:28.705Z,19.08
2018-08-17T04:36:58.395Z,18.99
2018-08-17T04:39:28.060Z,19.20
2018-08-17T04:41:57.901Z,19.03
2018-08-17T04:44:28.404Z,19.15
2018-08-17T04:46:58.180Z,19.14
2018-08-17T04:49:27.823Z,19.24
2018-08-17T04:51:57.594Z,19.31
2018-08-17T04:54:27.921Z,19.09
2018-08-17T04:56:57.628Z,19.21
2018-08-17T04:59:27.333Z,19.22
2018-08-17T05:01:56.992Z,19.38
2018-08-17T05:04:26.821Z,19.39
2018-08-17T05:06:56.670Z,19.35
2018-08-17T05:09:26.452Z,19.48
2018-08-17T05:11:56.191Z,19.52
2018-08-17T05:14:25.855Z,19.64
2018-08-17T05:16:55.514Z,19.62
2018-08-17T05:19:25.182Z,19.62
2018-08-17T05:21:54.866Z,19.75
2018-08-17T05:24:24.529Z,19.90
2018-08-17T05:26:54.241Z,19.95
2018-08-17T05:29:23.907Z,19.79
2018-08-17T05:31:53.556Z,20.12
2018-08-17T05:34:23.296Z,20.22
2018-08-17T05:36:53.013Z,19.97
2018-08-17T05:39:22.640Z,20.27
2018-08-17T05:41:52.336Z,20.14
2018-08-17T05:44:21.982Z,20.06
2018-08-17T05:46:51.641Z,20.11
2018-08-17T05:49:21.589Z,20.02
2018-08-17T05:51:51.365Z,20.17
2018-08-17T05:54:21.004Z,20.10
2018-08-17T05:56:50.854Z,20.06
2018-08-17T05:59:20.535Z,19.81
2018-08-17T06:01:50.313Z,19.79
2018-08-17T06:04:20.031Z,19.38
2018-08-17T06:06:49.821Z,19.23
2018-08-17T06:09:19.478Z,18.89
2018-08-17T06:11:49.143Z,18.94
2018-08-17T06:14:18.942Z,18.58
2018-08-17T06:16:48.648Z,17.91
2018-08-17T06:19:18.443Z,17.36
2018-08-17T06:21:48.101Z,17.09
2018-08-17T06:24:17.852Z,17.14
2018-08-17T06:26:47.665Z,17.19
2018-08-17T06:29:20.364Z,17.27
2018-08-17T06:31:50.291Z,17.20
2018-08-17T06:34:20.037Z,17.22
2018-08-17T06:36:50.214Z,17.22
2018-08-17T06:39:20.656Z,17.32
2018-08-17T06:41:50.981Z,17.24
2018-08-17T06:44:21.114Z,17.29
2018-08-17T06:46:51.233Z,17.22
2018-08-17T06:49:21.564Z,17.28
2018-08-17T06:51:54.608Z,17.37
2018-08-17T06:54:25.464Z,17.29
2018-08-17T06:56:57.729Z,17.40
2018-08-17T06:59:31.018Z,17.39
2018-08-17T07:02:03.694Z,17.30
2018-08-17T07:04:34.340Z,17.41
2018-08-17T07:07:04.697Z,17.52
2018-08-17T07:09:35.189Z,17.58
2018-08-17T07:12:04.817Z,17.59
2018-08-17T07:14:34.721Z,17.89
2018-08-17T07:17:04.429Z,17.73
2018-08-17T07:19:34.137Z,18.06
2018-08-17T07:22:03.890Z,18.06
2018-08-17T07:24:33.565Z,18.21
2018-08-17T07:27:04.157Z,18.32
2018-08-17T07:29:33.874Z,18.50
2018-08-17T07:32:03.771Z,18.69
2018-08-17T07:34:33.462Z,18.77
2018-08-17T07:37:03.194Z,18.69
2018-08-17T07:39:33.055Z,18.73
2018-08-17T07:42:03.018Z,18.70
2018-08-17T07:44:32.763Z,18.55
2018-08-17T07:47:03.559Z,18.45
2018-08-17T07:49:33.367Z,18.62
2018-08-17T07:52:03.290Z,18.63
2018-08-17T07:54:33.126Z,18.79
2018-08-17T07:57:03.053Z,18.80
2018-08-17T07:59:32.810Z,18.99
2018-08-17T08:02:02.688Z,19.09
2018-08-17T08:04:32.400Z,19.59
2018-08-17T08:07:02.210Z,19.68
2018-08-17T08:09:31.899Z,19.68
2018-08-17T08:12:01.646Z,19.70
2018-08-17T08:14:31.415Z,19.84
2018-08-17T08:17:01.193Z,19.85
2018-08-17T08:19:33.871Z,20.07
2018-08-17T08:22:03.621Z,20.07
2018-08-17T08:24:38.712Z,21.08
2018-08-17T08:27:09.634Z,21.95
2018-08-17T08:29:39.328Z,20.45
2018-08-17T08:32:09.140Z,20.62
2018-08-17T08:34:38.831Z,20.09
2018-08-17T08:37:08.594Z,20.23
2018-08-17T08:39:38.308Z,20.03
2018-08-17T08:42:08.105Z,20.52
2018-08-17T08:44:37.761Z,20.74
2018-08-17T08:47:07.594Z,20.75
2018-08-17T08:49:37.245Z,20.98
2018-08-17T08:52:07.249Z,20.93
2018-08-17T08:54:36.907Z,20.78
2018-08-17T08:57:06.593Z,20.85
2018-08-17T08:59:37.393Z,20.60
2018-08-17T09:02:07.291Z,20.87
2018-08-17T09:04:37.009Z,20.60
2018-08-17T09:07:06.796Z,20.71
2018-08-17T09:09:36.477Z,20.50
2018-08-17T09:12:06.353Z,20.50
2018-08-17T09:14:36.017Z,20.68
2018-08-17T09:17:05.888Z,20.74
2018-08-17T09:19:35.534Z,20.63
2018-08-17T09:22:05.370Z,20.61
2018-08-17T09:24:35.342Z,20.50
2018-08-17T09:27:05.003Z,20.33
2018-08-17T09:29:34.701Z,20.16
2018-08-17T09:32:04.404Z,20.09
2018-08-17T09:34:34.195Z,19.79
2018-08-17T09:37:04.055Z,19.76
2018-08-17T09:39:33.721Z,19.56
2018-08-17T09:42:03.481Z,19.44
2018-08-17T09:44:33.191Z,19.34
2018-08-17T09:47:05.217Z,19.26
2018-08-17T09:49:34.974Z,19.16
2018-08-17T09:52:05.013Z,18.96
2018-08-17T09:54:34.752Z,19.20
2018-08-17T09:57:04.674Z,19.65
2018-08-17T09:59:35.346Z,19.97
2018-08-17T10:02:10.737Z,20.36
2018-08-17T10:04:41.084Z,20.63
2018-08-17T10:07:16.384Z,20.98
2018-08-17T10:09:51.044Z,21.39
2018-08-17T10:12:20.710Z,21.38
2018-08-17T10:14:50.432Z,21.06
2018-08-17T10:17:20.097Z,21.43
2018-08-17T10:19:49.933Z,21.94
2018-08-17T10:22:19.663Z,22.51
2018-08-17T10:24:49.346Z,22.37
2018-08-17T10:27:21.981Z,22.01
2018-08-17T10:29:51.796Z,21.76
2018-08-17T10:32:21.485Z,21.04
2018-08-17T10:34:51.334Z,21.08
2018-08-17T10:37:21.070Z,20.66
2018-08-17T10:39:51.308Z,20.60
2018-08-17T10:42:21.151Z,20.40
2018-08-17T10:44:50.875Z,20.41
2018-08-17T10:47:20.610Z,20.71
2018-08-17T10:49:50.622Z,21.02
2018-08-17T10:52:20.568Z,21.38
2018-08-17T10:54:50.463Z,22.03
2018-08-17T10:57:20.303Z,21.51
2018-08-17T10:59:51.212Z,21.92
2018-08-17T11:02:20.949Z,22.08
2018-08-17T11:04:51.115Z,22.22
2018-08-17T11:07:25.373Z,21.93
2018-08-17T11:09:55.296Z,22.48
2018-08-17T11:12:25.118Z,21.99
2018-08-17T11:14:55.473Z,21.48
2018-08-17T11:17:25.250Z,21.93
2018-08-17T11:19:55.532Z,22.30
2018-08-17T11:22:25.281Z,22.00
2018-08-17T11:24:56.243Z,21.89
2018-08-17T11:27:30.070Z,22.18
2018-08-17T11:30:00.114Z,21.23
2018-08-17T11:32:30.888Z,21.46
2018-08-17T11:35:00.647Z,21.35
2018-08-17T11:37:30.607Z,21.13
2018-08-17T11:40:04.092Z,21.06
2018-08-17T11:42:38.409Z,21.17
2018-08-17T11:45:12.935Z,21.68
2018-08-17T11:47:43.432Z,22.48
2018-08-17T11:50:15.361Z,22.56
2018-08-17T11:52:52.637Z,23.50
2018-08-17T11:55:23.590Z,23.39
2018-08-17T11:57:53.549Z,23.10
2018-08-17T12:00:23.486Z,22.34
2018-08-17T12:02:53.374Z,22.60
2018-08-17T12:05:23.630Z,23.11
2018-08-17T12:07:55.982Z,23.00
2018-08-17T12:10:25.736Z,23.31
2018-08-17T12:12:58.714Z,22.72
2018-08-17T12:15:29.021Z,23.13
2018-08-17T12:17:58.832Z,23.02
2018-08-17T12:20:28.589Z,23.01
2018-08-17T12:23:00.462Z,23.13
2018-08-17T12:25:33.106Z,23.13
2018-08-17T12:28:04.371Z,23.19
2018-08-17T12:30:35.481Z,23.55
2018-08-17T12:33:06.780Z,23.86
2018-08-17T12:35:36.491Z,24.27
2018-08-17T12:38:13.649Z,24.46
2018-08-17T12:40:50.648Z,24.58
2018-08-17T12:43:26.142Z,24.35
2018-08-17T12:45:58.780Z,24.23
2018-08-17T12:48:31.093Z,23.94
2018-08-17T12:51:04.422Z,23.86
2018-08-17T12:53:34.102Z,23.98
2018-08-17T12:56:18.409Z,23.75
2018-08-17T12:58:48.157Z,23.85
2018-08-17T13:01:17.881Z,23.65
2018-08-17T13:03:47.582Z,23.78
2018-08-17T13:06:17.559Z,24.09
2018-08-17T13:08:47.470Z,23.88
2018-08-17T13:11:18.254Z,24.09
2018-08-17T13:13:48.259Z,24.09
2018-08-17T13:16:17.921Z,23.94
2018-08-17T13:18:47.661Z,24.31
2018-08-17T13:21:17.482Z,24.67
2018-08-17T13:23:47.159Z,25.02
2018-08-17T13:26:16.792Z,24.97
2018-08-17T13:28:46.542Z,25.28
2018-08-17T13:31:16.266Z,25.25
2018-08-17T13:33:45.970Z,25.36
2018-08-17T13:36:15.752Z,25.59
2018-08-17T13:38:45.397Z,25.75
2018-08-17T13:41:15.138Z,26.00
2018-08-17T13:43:44.826Z,26.26
2018-08-17T13:46:14.894Z,26.49
2018-08-17T13:48:44.657Z,26.78
2018-08-17T13:51:14.577Z,27.32
2018-08-17T13:53:44.298Z,26.57
2018-08-17T13:56:14.058Z,27.61
2018-08-17T13:58:43.781Z,28.17
2018-08-17T14:01:13.449Z,28.04
2018-08-17T14:03:43.233Z,28.91
2018-08-17T14:06:12.931Z,28.94
2018-08-17T14:08:42.650Z,29.10
2018-08-17T14:11:12.576Z,28.39
2018-08-17T14:13:42.382Z,27.19
2018-08-17T14:16:12.102Z,27.38
2018-08-17T14:18:41.789Z,26.01
2018-08-17T14:21:11.702Z,25.82
2018-08-17T14:23:41.716Z,25.79
2018-08-17T14:26:11.529Z,27.35
2018-08-17T14:28:41.364Z,28.11
2018-08-17T14:31:11.072Z,27.71
2018-08-17T14:33:40.773Z,26.02
2018-08-17T14:36:10.462Z,24.85
2018-08-17T14:38:40.216Z,24.85
2018-08-17T14:41:10.137Z,25.32
2018-08-17T14:43:39.840Z,26.78
2018-08-17T14:46:09.530Z,27.91
2018-08-17T14:48:39.210Z,28.24
2018-08-17T14:51:08.899Z,29.33
2018-08-17T14:53:38.641Z,26.98
2018-08-17T14:56:08.497Z,26.39
2018-08-17T14:58:38.217Z,24.73
2018-08-17T15:01:08.108Z,25.89
2018-08-17T15:03:37.838Z,27.04
2018-08-17T15:06:07.604Z,27.35
2018-08-17T15:08:37.266Z,28.04
2018-08-17T15:11:07.136Z,27.98
2018-08-17T15:13:37.107Z,27.98
2018-08-17T15:16:06.860Z,28.54
2018-08-17T15:18:36.651Z,27.40
2018-08-17T15:21:06.314Z,27.42
2018-08-17T15:23:37.132Z,27.73
2018-08-17T15:26:07.455Z,27.26
2018-08-17T15:28:37.307Z,26.43
2018-08-17T15:31:07.500Z,26.50
2018-08-17T15:33:37.226Z,27.32
2018-08-17T15:36:06.987Z,27.37
2018-08-17T15:38:36.701Z,27.48
2018-08-17T15:41:06.411Z,27.74
2018-08-17T15:43:36.085Z,27.52
2018-08-17T15:46:05.839Z,26.23
2018-08-17T15:48:41.670Z,26.31
2018-08-17T15:51:12.479Z,25.81
2018-08-17T15:53:43.070Z,25.05
2018-08-17T15:56:19.574Z,25.53
2018-08-17T15:58:49.427Z,25.88
2018-08-17T16:01:19.167Z,25.37
2018-08-17T16:03:48.825Z,25.45
2018-08-17T16:06:18.570Z,25.48
2018-08-17T16:08:48.330Z,26.56
2018-08-17T16:11:18.031Z,27.29
2018-08-17T16:13:47.678Z,26.60
2018-08-17T16:16:17.427Z,26.54
2018-08-17T16:18:47.095Z,26.35
2018-08-17T16:21:16.897Z,25.54
2018-08-17T16:23:46.644Z,24.68
2018-08-17T16:26:16.375Z,24.46
2018-08-17T16:28:46.093Z,23.92
2018-08-17T16:31:15.834Z,23.74
2018-08-17T16:33:45.498Z,23.68
2018-08-17T16:36:15.289Z,23.48
2018-08-17T16:38:45.019Z,23.50
2018-08-17T16:41:14.758Z,23.58
2018-08-17T16:43:47.310Z,23.85
2018-08-17T16:46:17.053Z,23.91
2018-08-17T16:48:46.854Z,24.06
2018-08-17T16:51:16.567Z,23.82
2018-08-17T16:53:46.260Z,24.03
2018-08-17T16:56:16.023Z,24.07
2018-08-17T16:58:45.709Z,23.88
2018-08-17T17:01:15.491Z,23.96
2018-08-17T17:03:45.206Z,24.08
2018-08-17T17:06:14.953Z,23.71
2018-08-17T17:08:44.621Z,23.94
2018-08-17T17:11:14.276Z,23.62
2018-08-17T17:13:44.465Z,23.41
2018-08-17T17:16:14.181Z,23.59
2018-08-17T17:18:43.962Z,23.48
2018-08-17T17:21:13.705Z,23.51
2018-08-17T17:23:52.334Z,23.49
2018-08-17T17:26:22.009Z,23.25
2018-08-17T17:28:51.666Z,22.80
2018-08-17T17:31:21.481Z,22.50
2018-08-17T17:33:51.171Z,22.47
2018-08-17T17:36:20.879Z,22.45
2018-08-17T17:38:50.571Z,22.24
2018-08-17T17:41:20.249Z,22.31
2018-08-17T17:43:49.948Z,22.21
2018-08-17T17:46:19.764Z,22.16
2018-08-17T17:48:49.427Z,22.03
2018-08-17T17:51:19.151Z,22.19
2018-08-17T17:53:48.820Z,22.06
2018-08-17T17:56:18.498Z,21.81
2018-08-17T17:58:48.155Z,21.88
2018-08-17T18:01:18.015Z,21.74
2018-08-17T18:03:47.929Z,21.61
2018-08-17T18:06:17.665Z,21.44
2018-08-17T18:08:47.302Z,21.38
2018-08-17T18:11:17.057Z,21.29
2018-08-17T18:13:46.825Z,21.03
2018-08-17T18:16:16.587Z,20.74
2018-08-17T18:18:46.325Z,20.54
2018-08-17T18:21:19.589Z,20.31
2018-08-17T18:24:02.214Z,20.13
2018-08-17T18:26:32.672Z,19.91
2018-08-17T18:29:02.872Z,19.73
2018-08-17T18:31:32.895Z,19.59
2018-08-17T18:34:02.787Z,19.44
2018-08-17T18:36:32.729Z,19.28
2018-08-17T18:39:02.585Z,19.17
2018-08-17T18:41:32.328Z,19.01
2018-08-17T18:44:03.573Z,18.86
2018-08-17T18:46:34.117Z,18.82
2018-08-17T18:49:04.140Z,18.73
2018-08-17T18:51:33.844Z,18.61
2018-08-17T18:54:04.233Z,18.48
2018-08-17T18:56:34.036Z,18.45
2018-08-17T18:59:03.882Z,18.31
2018-08-17T19:01:33.661Z,18.22
2018-08-17T19:04:03.967Z,18.16
2018-08-17T19:06:33.806Z,18.07
2018-08-17T19:09:07.575Z,17.98
2018-08-17T19:11:37.577Z,17.89
2018-08-17T19:14:08.043Z,17.76
2018-08-17T19:16:37.752Z,17.65
2018-08-17T19:19:08.136Z,17.51
2018-08-17T19:21:38.781Z,17.35
2018-08-17T19:24:12.353Z,17.20
2018-08-17T19:26:42.759Z,17.06
2018-08-17T19:31:51.828Z,16.92
2018-08-17T19:34:21.807Z,16.80
2018-08-17T19:36:51.812Z,16.73
2018-08-17T19:39:26.469Z,16.66
2018-08-17T19:41:56.527Z,16.55
2018-08-17T19:44:27.264Z,16.51
2018-08-17T19:46:57.132Z,16.39
2018-08-17T19:49:26.869Z,16.32
2018-08-17T19:51:57.333Z,16.27
2018-08-17T19:54:27.056Z,16.22
2018-08-17T19:56:56.809Z,16.15
2018-08-17T19:59:26.617Z,16.11
2018-08-17T20:01:56.310Z,16.04
2018-08-17T20:04:25.986Z,15.96
2018-08-17T20:06:55.785Z,15.88
2018-08-17T20:09:25.592Z,15.79
2018-08-17T20:11:55.296Z,15.76
2018-08-17T20:14:25.164Z,15.72
2018-08-17T20:16:54.839Z,15.68
2018-08-17T20:19:33.666Z,15.65
2018-08-17T20:22:03.408Z,15.60
2018-08-17T20:24:33.216Z,15.57
2018-08-17T20:27:02.997Z,15.53
2018-08-17T20:29:32.596Z,15.51
2018-08-17T20:32:02.342Z,15.44
2018-08-17T20:34:32.049Z,15.39
2018-08-17T20:37:01.792Z,15.38
2018-08-17T20:39:31.510Z,15.37
2018-08-17T20:42:01.193Z,15.33
2018-08-17T20:44:30.966Z,15.33
2018-08-17T20:47:01.762Z,15.34
2018-08-17T20:49:31.480Z,15.31
2018-08-17T20:52:02.364Z,15.31
2018-08-17T20:54:32.806Z,15.33
2018-08-17T20:57:02.765Z,15.32
2018-08-17T20:59:32.583Z,15.28
2018-08-17T21:02:02.339Z,15.26
2018-08-17T21:04:32.102Z,15.21
2018-08-17T21:07:01.953Z,15.15
2018-08-17T21:09:31.751Z,15.13
2018-08-17T21:12:01.521Z,15.05
2018-08-17T21:14:31.273Z,14.97
2018-08-17T21:17:00.962Z,14.92
2018-08-17T21:19:43.197Z,14.86
2018-08-17T21:24:52.472Z,14.84
2018-08-17T21:27:22.334Z,14.77
2018-08-17T21:29:52.125Z,14.77
2018-08-17T21:32:22.501Z,14.77
2018-08-17T21:34:52.394Z,14.73
2018-08-17T21:37:23.250Z,14.71
2018-08-17T21:39:53.002Z,14.65
2018-08-17T21:42:22.773Z,14.59
2018-08-17T21:44:52.438Z,14.58
2018-08-17T21:47:22.157Z,14.56
2018-08-17T21:49:54.645Z,14.49
2018-08-17T21:52:25.056Z,14.46
2018-08-17T21:54:54.734Z,14.43
2018-08-17T21:57:24.462Z,14.35
2018-08-17T21:59:55.020Z,14.32
2018-08-17T22:02:27.456Z,14.31
2018-08-17T22:04:57.359Z,14.24
2018-08-17T22:07:27.188Z,14.24
2018-08-17T22:09:56.903Z,14.24
2018-08-17T22:12:26.715Z,14.24
2018-08-17T22:14:56.314Z,14.20
2018-08-17T22:17:35.391Z,14.24
2018-08-17T22:20:07.116Z,14.22
2018-08-17T22:22:36.914Z,14.22
2018-08-17T22:25:13.674Z,14.20
2018-08-17T22:27:43.513Z,14.17
2018-08-17T22:30:25.056Z,14.19
2018-08-17T22:32:54.793Z,14.17
2018-08-17T22:35:24.580Z,14.13
2018-08-17T22:37:54.457Z,14.11
2018-08-17T22:40:24.158Z,14.11
2018-08-17T22:42:54.029Z,14.12
2018-08-17T22:45:24.735Z,14.06
2018-08-17T22:47:54.409Z,14.02
2018-08-17T22:50:24.254Z,14.01
2018-08-17T22:52:54.149Z,13.99
2018-08-17T22:55:23.821Z,13.93
2018-08-17T22:57:53.554Z,13.89
2018-08-17T23:00:26.280Z,13.87
2018-08-17T23:02:58.182Z,13.85
2018-08-17T23:05:29.810Z,13.82
2018-08-17T23:07:59.600Z,13.83
2018-08-17T23:10:29.756Z,13.87
2018-08-17T23:12:59.598Z,13.88
2018-08-17T23:15:29.422Z,13.81
2018-08-17T23:18:00.370Z,13.77
2018-08-17T23:20:34.684Z,13.72
2018-08-17T23:23:05.673Z,13.69
2018-08-17T23:25:35.664Z,13.70
2018-08-17T23:28:05.526Z,13.64
2018-08-17T23:30:35.241Z,13.64
2018-08-17T23:33:05.098Z,13.60
2018-08-17T23:35:34.816Z,13.59
2018-08-17T23:38:04.811Z,13.57
2018-08-17T23:40:34.490Z,13.55
2018-08-17T23:43:04.326Z,13.56
2018-08-17T23:45:34.010Z,13.54
2018-08-17T23:48:03.758Z,13.52
2018-08-17T23:50:33.511Z,13.49
2018-08-17T23:53:03.216Z,13.48
2018-08-17T23:55:33.022Z,13.47
2018-08-17T23:58:02.773Z,13.39
